createdAt,value
2023-04-23T00:01:50.843Z,8.15
2023-04-23T00:05:49.942Z,8.16
2023-04-23T00:09:52.997Z,8.20
2023-04-23T00:13:53.186Z,8.16
2023-04-23T00:17:56.580Z,8.14
2023-04-23T00:21:56.063Z,8.16
2023-04-23T00:25:59.655Z,8.20
2023-04-23T00:30:00.746Z,8.06
2023-04-23T00:34:06.198Z,7.85
2023-04-23T00:38:12.182Z,7.92
2023-04-23T00:42:15.748Z,8.04
2023-04-23T00:46:15.954Z,8.12
2023-04-23T00:50:19.285Z,8.31
2023-04-23T00:54:18.302Z,8.32
2023-04-23T00:58:21.597Z,8.31
2023-04-23T01:02:22.295Z,8.30
2023-04-23T01:06:25.512Z,8.38
2023-04-23T01:10:25.248Z,8.31
2023-04-23T01:14:28.524Z,8.30
2023-04-23T01:18:28.096Z,8.32
2023-04-23T01:22:31.117Z,8.38
2023-04-23T01:26:31.123Z,8.32
2023-04-23T01:30:35.067Z,8.31
2023-04-23T01:34:35.283Z,8.28
2023-04-23T01:38:37.942Z,8.19
2023-04-23T01:42:38.179Z,8.13
2023-04-23T01:46:41.226Z,8.08
2023-04-23T01:50:41.540Z,8.02
2023-04-23T01:54:44.260Z,7.94
2023-04-23T01:58:43.537Z,7.85
2023-04-23T02:02:52.574Z,7.71
2023-04-23T02:06:52.285Z,7.58
2023-04-23T02:10:55.242Z,7.47
2023-04-23T02:14:55.227Z,7.41
2023-04-23T02:18:58.087Z,7.33
2023-04-23T02:22:59.575Z,7.26
2023-04-23T02:27:02.807Z,7.17
2023-04-23T02:31:02.252Z,7.08
2023-04-23T02:35:06.456Z,6.97
2023-04-23T02:39:06.294Z,6.86
2023-04-23T02:43:09.123Z,6.76
2023-04-23T02:47:07.676Z,6.68
2023-04-23T02:51:08.624Z,6.62
2023-04-23T02:55:05.481Z,6.62
2023-04-23T02:59:06.533Z,6.59
2023-04-23T03:03:03.872Z,6.60
2023-04-23T03:07:04.760Z,6.67
2023-04-23T03:11:02.475Z,6.73
2023-04-23T03:15:03.830Z,6.79
2023-04-23T03:19:02.611Z,6.87
2023-04-23T03:23:03.509Z,6.94
2023-04-23T03:27:00.932Z,7.03
2023-04-23T03:31:01.659Z,7.09
2023-04-23T03:34:58.421Z,7.13
2023-04-23T03:38:59.174Z,7.19
2023-04-23T03:42:57.648Z,7.25
2023-04-23T03:47:05.816Z,7.32
2023-04-23T03:51:03.837Z,7.43
2023-04-23T03:55:12.259Z,7.57
2023-04-23T03:59:12.882Z,7.71
2023-04-23T04:03:15.169Z,7.87
2023-04-23T04:07:12.666Z,8.04
2023-04-23T04:11:13.780Z,8.20
2023-04-23T04:15:11.888Z,8.24
2023-04-23T04:19:13.433Z,8.34
2023-04-23T04:23:10.723Z,8.45
2023-04-23T04:27:11.387Z,8.60
2023-04-23T04:31:08.262Z,8.67
2023-04-23T04:35:09.173Z,8.84
2023-04-23T04:39:07.145Z,8.98
2023-04-23T04:43:10.512Z,8.81
2023-04-23T04:47:14.634Z,8.84
2023-04-23T04:51:15.882Z,9.10
2023-04-23T04:55:15.579Z,9.33
2023-04-23T04:59:16.930Z,9.51
2023-04-23T05:03:16.577Z,9.71
2023-04-23T05:07:18.345Z,9.76
2023-04-23T05:11:17.443Z,10.04
2023-04-23T05:15:21.298Z,10.28
2023-04-23T05:19:18.722Z,10.48
2023-04-23T05:23:23.273Z,10.78
2023-04-23T05:27:20.931Z,10.99
2023-04-23T05:31:24.578Z,11.17
2023-04-23T05:35:24.607Z,11.42
2023-04-23T05:39:26.491Z,11.57
2023-04-23T05:43:26.653Z,11.85
2023-04-23T05:47:28.391Z,12.16
2023-04-23T05:51:27.613Z,12.33
2023-04-23T05:55:30.802Z,12.68
2023-04-23T05:59:32.428Z,13.03
2023-04-23T06:03:36.820Z,13.23
2023-04-23T06:07:33.662Z,13.42
2023-04-23T06:11:36.986Z,13.69
2023-04-23T06:15:37.393Z,13.96
2023-04-23T06:19:41.566Z,14.29
2023-04-23T06:23:42.721Z,14.60
2023-04-23T06:32:33.998Z,14.97
2023-04-23T06:36:37.488Z,15.15
2023-04-23T06:40:35.862Z,15.43
2023-04-23T06:44:45.744Z,15.61
2023-04-23T06:48:47.419Z,15.87
2023-04-23T06:52:50.571Z,16.13
2023-04-23T06:56:53.414Z,16.22
2023-04-23T07:00:53.222Z,16.47
2023-04-23T07:04:56.064Z,16.65
2023-04-23T07:08:53.979Z,16.83
2023-04-23T07:12:57.169Z,16.97
2023-04-23T07:16:54.479Z,17.08
2023-04-23T07:20:57.763Z,17.11
2023-04-23T07:24:57.778Z,17.32
2023-04-23T07:28:59.181Z,17.50
2023-04-23T07:32:59.077Z,17.82
2023-04-23T07:37:00.535Z,18.09
2023-04-23T07:41:02.787Z,18.26
2023-04-23T07:45:06.645Z,18.47
2023-04-23T07:49:04.093Z,18.68
2023-04-23T07:53:06.607Z,19.14
2023-04-23T07:57:03.850Z,19.49
2023-04-23T08:01:06.691Z,19.68
2023-04-23T08:05:04.402Z,19.99
2023-04-23T08:09:13.951Z,20.03
2023-04-23T08:13:13.827Z,20.00
2023-04-23T08:17:14.880Z,19.75
2023-04-23T08:21:14.697Z,19.55
2023-04-23T08:25:15.324Z,19.52
2023-04-23T08:29:14.058Z,19.57
2023-04-23T08:33:18.656Z,19.67
2023-04-23T08:37:29.662Z,19.67
2023-04-23T08:41:33.679Z,19.72
2023-04-23T08:45:20.767Z,19.84
2023-04-23T08:49:07.776Z,19.99
2023-04-23T08:52:54.558Z,20.12
2023-04-23T08:56:47.874Z,20.26
2023-04-23T09:00:42.845Z,20.40
2023-04-23T09:04:44.473Z,20.38
2023-04-23T09:08:45.225Z,20.42
2023-04-23T09:12:49.208Z,20.51
2023-04-23T09:16:31.472Z,20.69
2023-04-23T09:20:31.865Z,20.70
2023-04-23T09:24:35.589Z,20.82
2023-04-23T09:28:35.043Z,20.88
2023-04-23T09:32:38.431Z,21.01
2023-04-23T09:36:38.050Z,21.09
2023-04-23T09:40:36.874Z,21.27
2023-04-23T09:44:25.239Z,21.34
2023-04-23T09:48:23.981Z,21.47
2023-04-23T09:52:27.432Z,21.57
2023-04-23T09:56:28.053Z,21.67
2023-04-23T10:04:17.188Z,21.89
2023-04-23T10:08:16.920Z,21.86
2023-04-23T10:16:24.268Z,22.06
2023-04-23T10:20:30.004Z,22.24
2023-04-23T10:24:30.064Z,22.59
2023-04-23T10:28:33.111Z,22.68
2023-04-23T10:32:34.180Z,22.59
2023-04-23T10:36:37.143Z,22.65
2023-04-23T10:40:45.942Z,22.62
2023-04-23T10:45:02.638Z,22.60
2023-04-23T10:49:05.043Z,22.56
2023-04-23T10:53:08.411Z,22.39
2023-04-23T10:57:08.140Z,22.32
2023-04-23T11:01:11.094Z,22.43
2023-04-23T11:05:12.053Z,22.39
2023-04-23T11:09:15.270Z,22.27
2023-04-23T11:13:14.452Z,22.13
2023-04-23T11:17:27.270Z,21.97
2023-04-23T11:21:27.144Z,21.84
2023-04-23T11:25:30.731Z,21.82
2023-04-23T11:29:31.140Z,22.01
2023-04-23T11:33:34.207Z,22.32
2023-04-23T11:37:34.298Z,22.46
2023-04-23T11:41:37.618Z,22.46
2023-04-23T11:45:36.307Z,22.58
2023-04-23T11:49:40.164Z,22.85
2023-04-23T11:53:40.802Z,23.00
2023-04-23T11:57:45.329Z,23.09
2023-04-23T12:01:45.410Z,23.14
2023-04-23T12:05:49.877Z,23.24
2023-04-23T12:09:51.614Z,23.48
2023-04-23T12:13:56.334Z,23.67
2023-04-23T12:17:56.078Z,23.74
2023-04-23T12:22:02.390Z,23.74
2023-04-23T12:26:10.199Z,23.66
2023-04-23T12:30:14.686Z,23.38
2023-04-23T12:34:23.425Z,22.93
2023-04-23T12:38:27.733Z,22.71
2023-04-23T12:42:07.721Z,22.52
2023-04-23T12:46:09.078Z,22.45
2023-04-23T12:50:06.491Z,22.49
2023-04-23T12:53:56.025Z,22.46
2023-04-23T12:57:44.930Z,22.55
2023-04-23T13:01:32.053Z,22.90
2023-04-23T13:05:19.035Z,23.35
2023-04-23T13:09:05.854Z,23.83
2023-04-23T13:13:00.981Z,24.22
2023-04-23T13:16:55.832Z,24.36
2023-04-23T13:20:57.155Z,24.51
2023-04-23T13:24:54.826Z,24.77
2023-04-23T13:28:56.126Z,25.21
2023-04-23T13:32:54.507Z,25.55
2023-04-23T13:36:55.962Z,25.58
2023-04-23T13:40:56.201Z,25.61
2023-04-23T13:44:58.936Z,25.35
2023-04-23T13:48:57.457Z,24.80
2023-04-23T13:53:00.296Z,24.19
2023-04-23T13:57:08.419Z,24.25
2023-04-23T14:01:10.338Z,24.44
2023-04-23T14:05:08.155Z,24.77
2023-04-23T14:09:08.968Z,25.27
2023-04-23T14:13:05.452Z,25.31
2023-04-23T14:17:06.548Z,25.13
2023-04-23T14:21:03.599Z,24.86
2023-04-23T14:25:06.449Z,24.11
2023-04-23T14:29:03.919Z,23.33
2023-04-23T14:33:04.991Z,22.76
2023-04-23T14:37:05.825Z,22.28
2023-04-23T14:41:06.133Z,21.97
2023-04-23T14:45:01.908Z,21.60
2023-04-23T14:49:02.087Z,21.24
2023-04-23T14:52:58.378Z,21.00
2023-04-23T14:56:59.494Z,20.89
2023-04-23T15:00:58.957Z,20.72
2023-04-23T15:04:59.792Z,20.49
2023-04-23T15:08:55.882Z,20.17
2023-04-23T15:12:56.370Z,19.96
2023-04-23T15:16:52.961Z,19.78
2023-04-23T15:20:53.796Z,19.74
2023-04-23T15:24:49.698Z,19.60
2023-04-23T15:28:51.447Z,19.46
2023-04-23T15:32:48.402Z,19.26
2023-04-23T15:36:48.661Z,19.08
2023-04-23T15:40:47.573Z,18.94
2023-04-23T15:44:48.466Z,18.83
2023-04-23T15:48:45.006Z,18.82
2023-04-23T15:52:44.979Z,18.84
2023-04-23T15:56:41.222Z,18.85
2023-04-23T16:00:47.878Z,18.79
2023-04-23T16:04:43.937Z,18.65
2023-04-23T16:08:45.400Z,18.52
2023-04-23T16:12:44.259Z,18.29
2023-04-23T16:16:44.687Z,18.02
2023-04-23T16:20:40.920Z,17.81
2023-04-23T16:24:45.607Z,17.74
2023-04-23T16:28:56.466Z,17.66
2023-04-23T16:33:02.035Z,17.56
2023-04-23T16:37:06.018Z,17.41
2023-04-23T16:40:57.168Z,17.13
2023-04-23T16:44:43.250Z,16.92
2023-04-23T16:48:43.348Z,16.77
2023-04-23T16:52:35.376Z,16.63
2023-04-23T16:56:34.387Z,16.45
2023-04-23T17:00:37.343Z,16.25
2023-04-23T17:04:37.958Z,16.07
2023-04-23T17:08:35.669Z,15.84
2023-04-23T17:12:38.155Z,15.63
2023-04-23T17:16:35.917Z,15.37
2023-04-23T17:20:36.763Z,15.15
2023-04-23T17:24:33.742Z,14.91
2023-04-23T17:28:35.924Z,14.64
2023-04-23T17:32:34.944Z,14.36
2023-04-23T17:36:28.020Z,14.15
2023-04-23T17:40:26.564Z,13.91
2023-04-23T17:44:27.308Z,13.73
2023-04-23T17:48:27.100Z,13.50
2023-04-23T17:52:27.329Z,13.32
2023-04-23T17:56:26.898Z,13.07
2023-04-23T18:00:30.972Z,12.83
2023-04-23T18:04:53.130Z,12.62
2023-04-23T18:08:46.860Z,12.44
2023-04-23T18:17:48.585Z,12.08
2023-04-23T18:22:33.643Z,11.91
2023-04-23T18:26:12.573Z,11.74
2023-04-23T18:30:12.502Z,11.59
2023-04-23T18:34:12.230Z,11.47
2023-04-23T18:38:08.192Z,11.23
2023-04-23T18:42:08.146Z,11.07
2023-04-23T18:46:04.992Z,10.94
2023-04-23T18:50:04.714Z,10.81
2023-04-23T18:54:00.897Z,10.67
2023-04-23T18:58:07.943Z,10.54
2023-04-23T19:02:04.519Z,10.44
2023-04-23T19:06:02.362Z,10.31
2023-04-23T19:10:05.176Z,10.10
2023-04-23T19:14:05.898Z,9.93
2023-04-23T19:18:07.230Z,9.82
2023-04-23T19:22:27.302Z,9.72
2023-04-23T20:57:38.875Z,4.67
2023-04-23T21:01:37.983Z,4.86
2023-04-23T21:05:22.973Z,4.88
2023-04-23T21:09:08.136Z,4.90
2023-04-23T21:12:53.054Z,4.86
2023-04-23T21:16:37.700Z,4.89
2023-04-23T21:20:22.808Z,4.94
2023-04-23T21:24:07.631Z,4.97
2023-04-23T21:27:52.584Z,4.96
2023-04-23T21:31:37.348Z,5.02
2023-04-23T21:35:38.289Z,5.10
2023-04-23T21:39:37.415Z,5.12
2023-04-23T21:43:32.983Z,5.18
2023-04-23T21:47:32.562Z,5.20
2023-04-23T21:51:27.907Z,5.21
2023-04-23T21:55:26.970Z,5.23
2023-04-23T21:59:22.266Z,5.18
2023-04-23T22:03:32.916Z,5.10
2023-04-23T22:07:34.358Z,5.06
2023-04-23T22:11:33.774Z,5.00
2023-04-23T22:15:29.529Z,4.92
2023-04-23T22:19:28.643Z,4.74
2023-04-23T22:23:24.200Z,4.66
2023-04-23T22:27:23.132Z,4.64
2023-04-23T22:31:18.172Z,4.66
2023-04-23T22:35:17.203Z,4.71
2023-04-23T22:39:12.518Z,4.75
2023-04-23T22:43:11.949Z,4.83
2023-04-23T22:47:07.142Z,4.91
2023-04-23T22:51:06.286Z,4.87
2023-04-23T22:55:01.652Z,4.81
2023-04-23T22:59:00.522Z,4.80
2023-04-23T23:02:56.200Z,4.79
2023-04-23T23:06:55.385Z,4.81
2023-04-23T23:10:52.438Z,4.82
2023-04-23T23:14:51.800Z,4.74
2023-04-23T23:18:47.332Z,4.68
2023-04-23T23:22:46.928Z,4.67
2023-04-23T23:26:42.591Z,4.64
2023-04-23T23:30:41.383Z,4.58
2023-04-23T23:34:37.445Z,4.58
2023-04-23T23:38:38.024Z,4.59
2023-04-23T23:42:33.284Z,4.54
2023-04-23T23:46:32.187Z,4.52
2023-04-23T23:50:27.398Z,4.51
2023-04-23T23:54:26.499Z,4.55
2023-04-23T23:58:21.736Z,4.54
